Time;durP1;ratioP1;P1;durP2;ratioP2;P2;SDS_P1;SDS_P2;PMS_P1;PMS_P2;Temp;Humidity;BMP_temperature;BMP_pressure;BME280_temperature;BME280_humidity;BME280_pressure;Samples;Min_cycle;Max_cycle;Signal;HPM_P1;HPM_P2
2022/07/27 00:00:25;;;;;;;4.05;1.65;;;15.00;99.90;;;;;;6274617;22;20050;-86
2022/07/27 00:02:51;;;;;;;4.95;1.45;;;15.00;99.90;;;;;;6273493;22;20012;-87
2022/07/27 00:05:19;;;;;;;3.08;1.58;;;14.90;99.90;;;;;;6273490;22;20463;-87
2022/07/27 00:07:45;;;;;;;4.25;1.88;;;14.90;99.90;;;;;;6273905;22;20391;-88
2022/07/27 00:10:11;;;;;;;6.97;1.70;;;14.90;99.90;;;;;;6274043;22;20003;-89
2022/07/27 00:12:37;;;;;;;6.55;1.60;;;14.90;99.90;;;;;;6273466;22;20428;-89
2022/07/27 00:15:04;;;;;;;6.15;1.60;;;14.80;99.90;;;;;;6273042;22;20011;-89
2022/07/27 00:17:30;;;;;;;8.02;1.60;;;14.80;99.90;;;;;;6274002;22;20014;-89
2022/07/27 00:19:56;;;;;;;4.13;1.63;;;14.80;99.90;;;;;;6246657;22;20086;-87
2022/07/27 00:22:22;;;;;;;5.28;1.80;;;14.60;99.90;;;;;;6273501;22;20087;-88
2022/07/27 00:24:48;;;;;;;4.53;1.75;;;14.70;99.90;;;;;;6273900;22;20027;-90
2022/07/27 00:27:14;;;;;;;2.83;1.77;;;14.70;99.90;;;;;;6273479;22;20086;-88
2022/07/27 00:29:41;;;;;;;3.80;1.70;;;14.70;99.90;;;;;;6273073;22;20020;-90
2022/07/27 00:32:07;;;;;;;4.80;1.70;;;14.60;99.90;;;;;;6272925;22;20014;-89
2022/07/27 00:34:33;;;;;;;4.03;1.67;;;14.60;99.90;;;;;;6272419;22;20391;-89
2022/07/27 00:36:59;;;;;;;4.85;1.75;;;14.50;99.90;;;;;;6273099;22;20075;-87
2022/07/27 00:39:25;;;;;;;4.05;1.70;;;14.50;99.90;;;;;;6274376;22;19996;-88
2022/07/27 00:41:51;;;;;;;3.97;1.80;;;14.40;99.90;;;;;;6272851;22;19999;-89
2022/07/27 00:44:30;;;;;;;3.97;1.60;;;14.30;99.90;;;;;;6273143;22;20078;-88
2022/07/27 00:46:56;;;;;;;4.75;1.80;;;14.20;99.90;;;;;;6273766;22;19996;-88
2022/07/27 00:49:23;;;;;;;3.92;1.58;;;14.20;99.90;;;;;;6273896;22;20022;-88
2022/07/27 00:51:49;;;;;;;4.72;1.77;;;14.20;99.90;;;;;;6272621;22;20061;-87
2022/07/27 00:54:16;;;;;;;5.22;1.77;;;14.30;99.90;;;;;;6245188;22;20394;-87
2022/07/27 00:56:42;;;;;;;4.63;1.60;;;14.30;99.90;;;;;;6272056;22;20086;-88
2022/07/27 00:59:10;;;;;;;5.82;1.80;;;14.30;99.90;;;;;;6273077;22;19999;-90
2022/07/27 01:01:36;;;;;;;5.20;1.80;;;14.20;99.90;;;;;;6272754;22;20000;-90
2022/07/27 01:04:02;;;;;;;2.42;1.75;;;14.20;99.90;;;;;;6272168;22;20329;-90
2022/07/27 01:06:27;;;;;;;5.05;2.13;;;14.20;99.90;;;;;;6274100;22;20344;-90
2022/07/27 01:09:55;;;;;;;3.05;1.60;;;14.10;99.90;;;;;;6272547;22;20004;-89
2022/07/27 01:11:45;;;;;;;3.85;1.77;;;14.40;99.90;;;;;;6272349;22;20029;-89
2022/07/27 01:14:12;;;;;;;3.78;1.67;;;14.20;99.90;;;;;;6271794;22;20000;-90
2022/07/27 01:16:38;;;;;;;5.25;1.90;;;14.10;99.90;;;;;;6272234;22;20000;-90
2022/07/27 01:19:04;;;;;;;3.13;1.60;;;14.00;99.90;;;;;;6272458;22;20352;-90
2022/07/27 01:21:33;;;;;;;4.10;1.77;;;14.00;99.90;;;;;;6273151;22;19996;-84
2022/07/27 01:23:59;;;;;;;3.53;2.00;;;14.10;99.90;;;;;;6273227;22;20090;-90
2022/07/27 01:26:25;;;;;;;3.03;1.90;;;14.00;99.90;;;;;;6273587;22;20443;-90
2022/07/27 01:28:59;;;;;;;6.85;1.98;;;14.00;99.90;;;;;;6247082;22;20011;-90
2022/07/27 01:31:25;;;;;;;5.45;1.80;;;14.00;99.90;;;;;;6274477;22;20002;-84
2022/07/27 01:33:51;;;;;;;5.50;1.88;;;13.90;99.90;;;;;;6274412;22;20217;-86
2022/07/27 01:36:16;;;;;;;6.05;1.70;;;13.90;99.90;;;;;;6274031;22;20432;-88
2022/07/27 01:38:42;;;;;;;3.38;1.63;;;13.90;99.90;;;;;;6274201;22;20034;-89
2022/07/27 01:41:08;;;;;;;5.32;1.90;;;13.80;99.90;;;;;;6273846;22;20022;-89
2022/07/27 01:43:34;;;;;;;3.53;1.58;;;13.80;99.90;;;;;;6274527;22;20024;-89
2022/07/27 01:46:00;;;;;;;2.97;1.92;;;;;;;;;;6275228;22;20000;-88
2022/07/27 01:48:25;;;;;;;3.63;1.80;;;13.70;99.90;;;;;;6273818;22;20003;-87
2022/07/27 01:50:52;;;;;;;2.95;1.63;;;13.80;99.90;;;;;;6274505;22;20231;-89
2022/07/27 01:53:18;;;;;;;8.02;1.90;;;13.70;99.90;;;;;;6273778;22;20004;-89
2022/07/27 01:55:44;;;;;;;5.15;2.08;;;13.70;99.90;;;;;;6273425;22;20000;-87
2022/07/27 01:58:09;;;;;;;7.13;1.88;;;13.70;99.90;;;;;;6273964;22;20010;-91
2022/07/27 02:00:35;;;;;;;7.38;1.70;;;13.60;99.90;;;;;;6274116;22;20004;-88
2022/07/27 02:03:02;;;;;;;2.67;1.50;;;13.60;99.90;;;;;;6247789;22;20109;-90
2022/07/27 02:05:28;;;;;;;2.75;1.70;;;13.20;99.90;;;;;;6248031;22;20004;-89
2022/07/27 02:07:54;;;;;;;3.08;1.52;;;13.50;99.90;;;;;;6273879;22;20345;-86
2022/07/27 02:10:19;;;;;;;4.80;2.38;;;13.50;99.90;;;;;;6274042;22;20003;-87
2022/07/27 02:12:45;;;;;;;3.38;1.85;;;13.40;99.90;;;;;;6273646;22;20049;-89
2022/07/27 02:15:14;;;;;;;5.18;2.00;;;13.40;99.90;;;;;;6273524;22;20337;-88
2022/07/27 02:17:41;;;;;;;3.00;1.83;;;13.30;99.90;;;;;;6274143;22;20000;-89
2022/07/27 02:20:08;;;;;;;5.93;2.47;;;13.30;99.90;;;;;;6246913;22;20011;-91
2022/07/27 02:22:34;;;;;;;4.93;2.20;;;13.30;99.90;;;;;;6273840;22;20011;-86
2022/07/27 02:25:01;;;;;;;1.85;1.60;;;13.30;99.90;;;;;;6274589;22;20007;-88
2022/07/27 02:27:26;;;;;;;5.63;2.10;;;13.30;99.90;;;;;;6273173;22;20000;-89
2022/07/27 02:29:52;;;;;;;3.13;2.10;;;13.40;99.90;;;;;;6273451;22;20066;-87
2022/07/27 02:32:18;;;;;;;5.72;1.90;;;13.40;99.90;;;;;;6246295;22;20432;-85
2022/07/27 02:34:45;;;;;;;3.53;1.90;;;13.30;99.90;;;;;;6272802;22;19999;-86
2022/07/27 02:37:11;;;;;;;6.53;2.00;;;13.30;99.90;;;;;;6272709;22;20007;-85
2022/07/27 02:39:36;;;;;;;3.03;2.10;;;13.40;99.90;;;;;;6272556;22;20004;-86
2022/07/27 02:42:03;;;;;;;4.45;1.77;;;13.30;99.90;;;;;;6273517;22;20054;-85
2022/07/27 02:44:29;;;;;;;6.70;2.05;;;13.30;99.90;;;;;;6272440;22;20080;-87
2022/07/27 02:46:54;;;;;;;5.53;2.08;;;13.30;99.90;;;;;;6272945;22;20264;-87
2022/07/27 02:49:20;;;;;;;5.00;1.90;;;13.30;99.90;;;;;;6245912;22;20042;-87
2022/07/27 02:51:50;;;;;;;5.38;2.10;;;13.20;99.90;;;;;;6272559;22;20034;-85
2022/07/27 02:54:17;;;;;;;5.00;1.98;;;13.20;99.90;;;;;;6245344;22;20084;-85
2022/07/27 02:56:43;;;;;;;3.88;1.90;;;13.30;99.90;;;;;;6272476;22;20313;-85
2022/07/27 02:59:08;;;;;;;3.78;1.75;;;13.20;99.90;;;;;;6272604;22;20076;-86
2022/07/27 03:01:34;;;;;;;4.88;1.90;;;13.30;99.90;;;;;;6273700;22;20068;-89
2022/07/27 03:04:00;;;;;;;4.38;2.03;;;13.20;99.90;;;;;;6272581;22;20016;-85
2022/07/27 03:06:25;;;;;;;4.82;1.98;;;13.20;99.90;;;;;;6272540;22;20387;-87
2022/07/27 03:08:51;;;;;;;6.55;2.03;;;13.20;99.90;;;;;;6272446;22;20000;-87
2022/07/27 03:11:17;;;;;;;8.57;2.13;;;13.20;99.90;;;;;;6272269;22;20000;-88
2022/07/27 03:13:42;;;;;;;4.55;1.88;;;13.10;99.90;;;;;;6272267;22;20032;-87
2022/07/27 03:16:08;;;;;;;2.47;1.83;;;13.00;99.90;;;;;;6272504;22;20333;-88
2022/07/27 03:18:34;;;;;;;4.78;2.00;;;13.10;99.90;;;;;;6273484;22;20010;-88
2022/07/27 03:21:00;;;;;;;5.70;1.90;;;13.10;99.90;;;;;;6245287;22;20000;-88
2022/07/27 03:23:25;;;;;;;5.65;1.80;;;13.10;99.90;;;;;;6271950;22;20360;-86
2022/07/27 03:25:51;;;;;;;4.60;2.00;;;13.20;99.90;;;;;;6272198;22;20000;-88
2022/07/27 03:28:17;;;;;;;5.13;1.80;;;13.20;99.90;;;;;;6272513;22;19999;-86
2022/07/27 03:30:42;;;;;;;4.43;1.98;;;13.20;99.90;;;;;;6245814;22;20010;-89
2022/07/27 03:33:08;;;;;;;4.35;1.83;;;13.20;99.90;;;;;;6273205;22;20441;-87
2022/07/27 03:35:34;;;;;;;5.25;1.95;;;13.30;99.90;;;;;;6272711;22;20004;-84
2022/07/27 03:37:59;;;;;;;5.30;1.83;;;13.30;99.90;;;;;;6272449;22;20500;-83
2022/07/27 03:40:28;;;;;;;3.42;1.77;;;13.30;99.90;;;;;;6271456;22;20027;-87
2022/07/27 03:42:53;;;;;;;4.40;1.80;;;13.20;99.90;;;;;;6272194;22;20510;-86
2022/07/27 03:45:19;;;;;;;3.83;1.83;;;13.20;99.90;;;;;;6245075;22;19999;-83
2022/07/27 03:47:45;;;;;;;2.03;1.50;;;13.20;99.90;;;;;;6272136;22;20467;-83
2022/07/27 03:50:11;;;;;;;3.40;1.70;;;13.10;99.90;;;;;;6272091;22;20041;-89
2022/07/27 03:52:36;;;;;;;4.07;1.70;;;13.00;99.90;;;;;;6246535;22;20010;-87
2022/07/27 03:55:03;;;;;;;5.63;1.85;;;13.00;99.90;;;;;;6273201;22;20027;-90
2022/07/27 03:57:28;;;;;;;4.60;1.67;;;13.00;99.90;;;;;;6273342;22;20034;-87
2022/07/27 03:59:54;;;;;;;3.65;1.85;;;12.90;99.90;;;;;;6272896;22;20004;-86
2022/07/27 04:02:19;;;;;;;4.97;1.90;;;12.90;99.90;;;;;;6272920;22;20000;-85
2022/07/27 04:04:45;;;;;;;3.13;2.08;;;13.00;99.90;;;;;;6272716;22;20008;-87
2022/07/27 04:07:11;;;;;;;5.13;2.00;;;12.90;99.90;;;;;;6272811;22;19995;-87
2022/07/27 04:09:36;;;;;;;5.03;2.00;;;13.00;99.90;;;;;;6246739;22;20007;-90
2022/07/27 04:12:03;;;;;;;7.88;2.20;;;13.00;99.90;;;;;;6272473;22;20000;-89
2022/07/27 04:14:29;;;;;;;4.38;1.98;;;13.10;99.90;;;;;;6273287;22;20004;-88
2022/07/27 04:16:55;;;;;;;7.75;1.80;;;13.10;99.90;;;;;;6272930;22;19996;-89
2022/07/27 04:19:20;;;;;;;3.10;1.60;;;13.10;99.90;;;;;;6272696;22;20086;-87
2022/07/27 04:21:46;;;;;;;3.55;1.90;;;13.00;99.90;;;;;;6272486;22;20514;-89
2022/07/27 04:24:11;;;;;;;6.18;2.17;;;12.90;99.90;;;;;;6245025;22;20043;-89
2022/07/27 04:26:37;;;;;;;4.22;1.70;;;12.90;99.90;;;;;;6273511;22;19995;-84
2022/07/27 04:29:03;;;;;;;4.53;2.20;;;12.80;99.90;;;;;;6272117;22;20026;-86
2022/07/27 04:31:29;;;;;;;2.80;1.70;;;12.80;99.90;;;;;;6272701;22;20125;-87
2022/07/27 04:33:54;;;;;;;2.97;1.70;;;12.70;99.90;;;;;;6272953;22;19996;-88
2022/07/27 04:36:20;;;;;;;5.20;1.63;;;12.60;99.90;;;;;;6272761;22;20003;-89
2022/07/27 04:38:46;;;;;;;7.70;2.00;;;12.60;99.90;;;;;;6272766;22;20008;-89
2022/07/27 04:41:11;;;;;;;3.10;1.80;;;12.60;99.90;;;;;;6273452;22;20289;-83
2022/07/27 04:43:37;;;;;;;7.15;1.70;;;12.70;99.90;;;;;;6273762;22;20021;-90
2022/07/27 04:46:04;;;;;;;6.07;2.08;;;12.60;99.90;;;;;;6273178;22;20074;-90
2022/07/27 04:48:32;;;;;;;5.10;1.80;;;12.60;99.90;;;;;;6273052;22;20003;-89
2022/07/27 04:50:58;;;;;;;3.70;1.95;;;12.60;99.90;;;;;;6272440;22;20007;-90
2022/07/27 04:53:24;;;;;;;5.63;1.88;;;12.60;99.90;;;;;;6273503;22;20538;-92
2022/07/27 04:55:49;;;;;;;4.28;1.55;;;12.60;99.90;;;;;;6273479;22;19999;-89
2022/07/27 04:58:15;;;;;;;2.88;1.65;;;12.60;99.90;;;;;;6245883;22;20007;-87
2022/07/27 05:00:44;;;;;;;4.43;2.10;;;12.70;99.90;;;;;;6273742;22;20007;-90
2022/07/27 05:03:10;;;;;;;5.50;2.30;;;12.60;99.90;;;;;;6274208;22;20015;-88
2022/07/27 05:05:36;;;;;;;3.10;1.90;;;12.60;99.90;;;;;;6273103;22;19996;-87
2022/07/27 05:08:02;;;;;;;3.25;1.65;;;12.40;99.90;;;;;;6272704;22;20508;-89
2022/07/27 05:10:28;;;;;;;3.45;1.83;;;12.50;99.90;;;;;;6273155;22;20061;-88
2022/07/27 05:12:54;;;;;;;4.63;1.98;;;12.60;99.90;;;;;;6271504;22;20436;-91
2022/07/27 05:15:20;;;;;;;4.07;2.00;;;12.60;99.90;;;;;;6273888;22;20000;-88
2022/07/27 05:17:46;;;;;;;5.45;2.13;;;12.50;99.90;;;;;;6272748;22;20061;-87
2022/07/27 05:20:13;;;;;;;2.97;1.83;;;12.60;99.90;;;;;;6273901;22;20000;-90
2022/07/27 05:22:39;;;;;;;3.38;2.03;;;12.30;99.90;;;;;;6273568;22;20015;-88
2022/07/27 05:25:05;;;;;;;3.38;2.00;;;12.70;99.90;;;;;;6246436;22;20008;-88
2022/07/27 05:27:31;;;;;;;4.75;2.08;;;12.60;99.90;;;;;;6273029;22;20000;-89
2022/07/27 05:29:56;;;;;;;4.15;2.20;;;12.50;99.90;;;;;;6272991;22;20003;-89
2022/07/27 05:32:22;;;;;;;7.75;2.47;;;12.30;99.90;;;;;;6271942;22;20004;-88
2022/07/27 05:34:48;;;;;;;4.82;2.50;;;12.40;99.90;;;;;;6245819;22;20042;-90
2022/07/27 05:37:14;;;;;;;2.67;1.80;;;12.60;99.90;;;;;;6273093;22;20082;-84
2022/07/27 05:39:42;;;;;;;3.63;2.25;;;12.80;99.90;;;;;;6273666;22;20019;-88
2022/07/27 05:42:08;;;;;;;3.95;2.17;;;12.90;99.90;;;;;;6245985;22;20169;-87
2022/07/27 05:44:35;;;;;;;4.65;2.13;;;12.90;99.90;;;;;;6272730;22;20252;-86
2022/07/27 05:47:00;;;;;;;5.35;2.20;;;13.00;99.90;;;;;;6271916;22;20000;-89
2022/07/27 05:49:26;;;;;;;5.15;2.47;;;13.10;99.90;;;;;;6271621;22;20010;-84
2022/07/27 05:51:52;;;;;;;3.83;2.40;;;13.10;99.90;;;;;;6272967;22;20003;-87
2022/07/27 05:54:18;;;;;;;4.32;2.45;;;13.10;99.90;;;;;;6272665;22;20007;-87
2022/07/27 05:56:45;;;;;;;5.82;2.40;;;12.60;99.90;;;;;;6274196;22;20436;-88
2022/07/27 05:59:11;;;;;;;5.45;2.40;;;12.40;99.90;;;;;;6274064;22;20052;-89
2022/07/27 06:01:37;;;;;;;6.18;2.50;;;12.50;99.90;;;;;;6273238;22;20054;-90
2022/07/27 06:04:04;;;;;;;3.38;2.30;;;12.40;99.90;;;;;;6272760;22;20061;-88
2022/07/27 06:09:14;;;;;;;5.15;2.33;;;12.70;99.90;;;;;;6273793;22;20025;-91
2022/07/27 06:11:40;;;;;;;4.22;2.22;;;12.70;99.90;;;;;;6272768;22;20438;-91
2022/07/27 06:14:06;;;;;;;4.00;2.05;;;13.00;99.90;;;;;;6272975;22;20181;-88
2022/07/27 06:16:31;;;;;;;3.42;2.10;;;13.30;99.90;;;;;;6274205;22;20035;-91
2022/07/27 06:18:57;;;;;;;5.07;2.40;;;13.50;99.90;;;;;;6274422;22;20004;-90
2022/07/27 06:21:25;;;;;;;4.88;2.28;;;13.50;99.90;;;;;;6274469;22;20000;-85
2022/07/27 06:23:52;;;;;;;6.28;2.53;;;13.40;99.90;;;;;;6274524;22;20019;-89
2022/07/27 06:26:17;;;;;;;5.30;2.50;;;13.30;99.90;;;;;;6274590;22;20022;-86
2022/07/27 06:28:43;;;;;;;5.53;2.10;;;13.30;99.90;;;;;;6274924;22;20488;-89
2022/07/27 06:31:09;;;;;;;6.00;2.40;;;13.50;99.90;;;;;;6273870;22;20010;-88
2022/07/27 06:33:34;;;;;;;6.60;2.25;;;14.10;99.90;;;;;;6274360;22;20015;-88
2022/07/27 06:36:00;;;;;;;4.90;2.15;;;13.50;99.90;;;;;;6273069;22;19996;-91
2022/07/27 06:38:27;;;;;;;5.93;2.35;;;13.70;99.90;;;;;;6273011;22;20487;-88
2022/07/27 06:40:53;;;;;;;5.88;2.35;;;14.00;99.90;;;;;;6272852;22;20433;-85
2022/07/27 06:43:25;;;;;;;7.70;2.30;;;14.00;99.90;;;;;;6246125;22;20012;-90
2022/07/27 06:45:53;;;;;;;4.18;2.30;;;14.10;99.90;;;;;;6272638;22;20070;-87
2022/07/27 06:48:20;;;;;;;8.70;2.73;;;14.30;99.90;;;;;;6273653;22;20011;-86
2022/07/27 06:50:46;;;;;;;4.95;2.05;;;14.20;99.90;;;;;;6274355;22;20034;-85
2022/07/27 06:53:12;;;;;;;5.43;2.00;;;14.30;99.90;;;;;;6245899;22;20008;-84
2022/07/27 06:55:38;;;;;;;3.47;2.08;;;14.40;99.90;;;;;;6272898;22;20456;-90
2022/07/27 06:58:04;;;;;;;6.07;2.15;;;14.60;99.90;;;;;;6272927;22;20115;-90
2022/07/27 07:00:30;;;;;;;5.32;2.20;;;14.70;99.90;;;;;;6272439;22;19996;-87
2022/07/27 07:03:04;;;;;;;9.13;2.42;;;14.80;99.90;;;;;;6272669;22;20018;-87
2022/07/27 07:05:31;;;;;;;6.55;2.22;;;14.70;99.90;;;;;;6272823;22;20082;-91
2022/07/27 07:07:57;;;;;;;5.55;2.08;;;14.90;99.90;;;;;;6273342;22;20074;-92
2022/07/27 07:10:24;;;;;;;6.38;2.45;;;15.10;99.90;;;;;;6272670;22;20000;-89
2022/07/27 07:12:54;;;;;;;6.20;2.08;;;15.30;99.90;;;;;;6272414;22;20072;-84
2022/07/27 07:15:25;;;;;;;5.40;2.15;;;15.40;99.90;;;;;;6273120;22;19999;-84
2022/07/27 07:17:56;;;;;;;3.03;1.60;;;15.70;99.90;;;;;;6266661;22;20444;-84
2022/07/27 07:20:24;;;;;;;7.57;1.75;;;15.90;99.90;;;;;;6270041;22;20487;-85
2022/07/27 07:22:50;;;;;;;8.23;1.98;;;16.00;99.90;;;;;;6272278;22;20003;-85
2022/07/27 07:25:16;;;;;;;4.40;1.80;;;16.20;99.90;;;;;;6272726;22;20000;-86
2022/07/27 07:27:42;;;;;;;9.40;2.47;;;16.20;99.90;;;;;;6271779;22;19999;-91
2022/07/27 07:30:08;;;;;;;4.30;1.85;;;16.40;99.90;;;;;;6271375;22;20026;-90
2022/07/27 07:32:34;;;;;;;8.18;2.03;;;16.50;99.90;;;;;;6271545;22;20003;-90
2022/07/27 07:35:02;;;;;;;4.88;1.98;;;16.40;99.90;;;;;;6272094;22;20007;-91
2022/07/27 07:37:27;;;;;;;;;;;16.40;99.90;;;;;;6272797;22;20025;-85
2022/07/27 07:39:53;;;;;;;5.78;2.10;;;16.50;99.90;;;;;;6271620;22;19899;-91
2022/07/27 07:42:19;;;;;;;4.50;1.73;;;;;;;;;;6245911;22;20090;-90
2022/07/27 07:44:45;;;;;;;7.90;2.10;;;16.40;99.90;;;;;;6245964;22;20003;-90
2022/07/27 07:47:11;;;;;;;6.47;1.80;;;16.80;99.90;;;;;;6271539;22;19999;-91
2022/07/27 07:49:36;;;;;;;6.38;2.20;;;16.80;99.90;;;;;;6244961;22;20325;-90
2022/07/27 07:52:02;;;;;;;8.65;2.30;;;16.90;99.90;;;;;;6271299;22;20031;-90
2022/07/27 07:54:28;;;;;;;4.32;2.08;;;;;;;;;;6243170;22;20004;-89
2022/07/27 07:56:54;;;;;;;4.25;1.85;;;17.10;99.90;;;;;;6271429;22;20000;-85
2022/07/27 07:59:20;;;;;;;4.93;1.75;;;17.20;99.90;;;;;;6271127;22;20001;-86
2022/07/27 08:01:45;;;;;;;4.30;1.73;;;17.30;99.90;;;;;;6272051;22;19996;-91
2022/07/27 08:04:11;;;;;;;7.72;1.67;;;17.30;99.90;;;;;;6271270;22;20016;-85
2022/07/27 08:06:38;;;;;;;7.88;1.80;;;17.60;99.90;;;;;;6270611;22;20348;-91
2022/07/27 08:09:05;;;;;;;5.03;1.97;;;17.60;99.90;;;;;;6271077;22;20010;-85
2022/07/27 08:11:30;;;;;;;6.95;1.83;;;17.80;99.90;;;;;;6271794;22;20006;-91
2022/07/27 08:13:56;;;;;;;4.32;1.80;;;17.90;99.90;;;;;;6271331;22;20023;-93
2022/07/27 08:16:22;;;;;;;7.70;1.77;;;18.00;99.90;;;;;;6271387;22;19996;-90
2022/07/27 08:18:48;;;;;;;2.75;1.70;;;18.20;99.90;;;;;;6270398;22;20079;-88
2022/07/27 08:21:14;;;;;;;5.68;1.70;;;18.20;99.90;;;;;;6270337;22;20011;-89
2022/07/27 08:23:40;;;;;;;5.30;1.58;;;18.80;99.90;;;;;;6237777;23;20027;-92
2022/07/27 08:26:05;;;;;;;6.70;1.77;;;18.50;99.90;;;;;;6239969;22;20000;-88
2022/07/27 08:28:31;;;;;;;3.70;1.80;;;18.60;99.90;;;;;;6241265;23;20018;-89
2022/07/27 08:30:57;;;;;;;6.72;1.58;;;18.30;99.90;;;;;;6240617;22;20054;-88
2022/07/27 08:33:23;;;;;;;6.32;1.90;;;18.40;99.90;;;;;;6239418;23;20340;-84
2022/07/27 08:35:49;;;;;;;5.50;1.60;;;18.50;99.90;;;;;;6240452;22;20008;-89
2022/07/27 08:38:15;;;;;;;6.05;1.70;;;18.70;99.90;;;;;;6238915;23;20015;-88
2022/07/27 08:40:41;;;;;;;7.50;1.77;;;19.00;99.90;;;;;;6240191;23;19996;-89
2022/07/27 08:43:07;;;;;;;4.93;1.70;;;19.00;99.90;;;;;;6264312;22;20026;-85
2022/07/27 08:45:33;;;;;;;6.00;1.85;;;;;;;;;;6240050;22;20023;-86
2022/07/27 08:47:59;;;;;;;5.20;1.40;;;19.80;99.90;;;;;;6239543;23;20058;-86
2022/07/27 08:50:29;;;;;;;4.82;1.70;;;20.00;99.90;;;;;;6239398;22;20004;-85
2022/07/27 08:53:08;;;;;;;2.70;1.35;;;;;;;;;;6237633;23;20460;-86
2022/07/27 08:55:39;;;;;;;3.58;1.50;;;;;;;;;;6240098;23;20070;-86
2022/07/27 08:58:05;;;;;;;5.25;1.60;;;;;;;;;;6239319;23;20038;-86
2022/07/27 09:00:33;;;;;;;7.55;1.60;;;;;;;;;;6240539;23;20341;-86
2022/07/27 09:02:59;;;;;;;4.17;1.47;;;;;;;;;;6240295;23;20000;-86
2022/07/27 09:05:25;;;;;;;3.42;1.55;;;;;;;;;;6240482;23;20014;-85
2022/07/27 09:07:51;;;;;;;7.18;1.58;;;;;;;;;;6239185;23;20006;-85
2022/07/27 09:10:30;;;;;;;3.22;1.42;;;;;;;;;;6241402;23;20007;-84
2022/07/27 09:12:56;;;;;;;4.00;1.50;;;;;;;;;;6240223;23;20004;-85
2022/07/27 09:15:22;;;;;;;4.38;1.58;;;;;;;;;;6239945;23;20011;-85
2022/07/27 09:17:49;;;;;;;3.28;1.50;;;;;;;;;;6240922;23;20497;-85
2022/07/27 09:20:16;;;;;;;3.00;1.30;;;;;;;;;;6240899;23;20519;-88
2022/07/27 09:22:45;;;;;;;5.43;1.50;;;;;;;;;;6238917;23;20027;-85
2022/07/27 09:25:12;;;;;;;7.00;1.67;;;;;;;;;;6239317;23;20426;-85
2022/07/27 09:27:38;;;;;;;3.85;1.48;;;;;;;;;;6238609;23;20001;-86
2022/07/27 09:30:06;;;;;;;5.35;1.50;;;;;;;;;;6238661;23;20000;-85
2022/07/27 09:32:32;;;;;;;3.80;1.40;;;;;;;;;;6238710;23;20004;-88
2022/07/27 09:34:58;;;;;;;6.53;1.58;;;;;;;;;;6240641;23;20231;-87
2022/07/27 09:37:25;;;;;;;6.10;1.60;;;;;;;;;;6240448;23;20448;-87
2022/07/27 09:40:09;;;;;;;3.80;1.45;;;;;;;;;;6241372;23;20006;-88
2022/07/27 09:42:35;;;;;;;4.47;1.40;;;;;;;;;;6240421;22;20015;-87
2022/07/27 09:45:01;;;;;;;3.72;1.60;;;;;;;;;;6240645;23;20004;-86
2022/07/27 09:47:28;;;;;;;4.38;1.40;;;;;;;;;;6240343;23;20054;-87
2022/07/27 09:53:20;;;;;;;6.18;1.50;;;21.10;99.90;;;;;;6234390;22;20004;-89
2022/07/27 09:56:06;;;;;;;8.90;2.38;;;20.50;99.90;;;;;;6241345;22;20023;-89
2022/07/27 09:58:43;;;;;;;4.32;1.65;;;20.80;99.90;;;;;;6243639;22;20075;-90
2022/07/27 10:01:16;;;;;;;4.57;1.70;;;21.90;99.90;;;;;;6243289;23;20028;-89
2022/07/27 10:03:43;;;;;;;5.25;1.63;;;21.50;99.90;;;;;;6244072;22;20012;-92
2022/07/27 10:06:10;;;;;;;2.95;1.50;;;21.80;99.90;;;;;;6242822;23;20336;-91
2022/07/27 10:08:40;;;;;;;3.22;1.45;;;;;;;;;;6243684;23;20008;-92
2022/07/27 10:11:06;;;;;;;3.88;1.50;;;;;;;;;;6243049;23;20004;-90
2022/07/27 10:13:32;;;;;;;7.13;1.52;;;22.30;99.90;;;;;;6241845;23;20004;-90
2022/07/27 10:15:59;;;;;;;3.45;1.42;;;22.30;99.90;;;;;;6242520;22;19996;-91
2022/07/27 10:18:44;;;;;;;2.63;1.30;;;22.00;99.90;;;;;;6241478;23;20015;-92
2022/07/27 10:21:10;;;;;;;4.93;1.38;;;22.20;99.90;;;;;;6217638;23;20005;-90
2022/07/27 10:23:39;;;;;;;4.38;1.60;;;22.30;99.90;;;;;;6271598;22;20015;-87
2022/07/27 10:26:17;;;;;;;4.13;1.50;;;22.10;99.90;;;;;;6278723;22;20493;-88
2022/07/27 10:28:57;;;;;;;3.28;1.50;;;21.80;99.90;;;;;;6246562;22;20004;-88
2022/07/27 10:31:28;;;;;;;5.03;1.70;;;21.20;99.90;;;;;;6273651;22;20000;-89
2022/07/27 10:37:38;;;;;;;5.22;1.50;;;20.90;99.90;;;;;;6232589;22;20060;-91
2022/07/27 10:40:38;;;;;;;24.92;1.75;;;20.80;99.90;;;;;;6274286;22;20004;-92
2022/07/27 10:43:59;;;;;;;4.50;1.40;;;20.60;99.90;;;;;;6277687;22;20007;-90
2022/07/27 10:47:57;;;;;;;4.90;1.38;;;20.50;99.90;;;;;;6097703;23;20459;-91
2022/07/27 10:50:18;;;;;;;6.93;1.77;;;20.60;99.90;;;;;;6102842;23;20088;-91
2022/07/27 10:52:51;;;;;;;4.45;1.60;;;20.60;99.90;;;;;;6122919;23;20017;-90
2022/07/27 10:55:46;;;;;;;3.47;1.60;;;20.60;99.90;;;;;;6121609;23;20002;-90
2022/07/27 10:58:22;;;;;;;6.18;1.70;;;20.80;99.90;;;;;;6121682;23;20009;-91
2022/07/27 11:01:42;;;;;;;;;;;;;;;;;;;;;
2022/07/27 11:04:12;;;;;;;5.38;1.40;;;20.90;99.90;;;;;;6195576;22;20020;-91
2022/07/27 11:06:37;;;;;;;3.17;1.60;;;21.10;99.90;;;;;;6289710;22;19999;-88
2022/07/27 11:09:03;;;;;;;4.68;1.42;;;21.40;99.90;;;;;;6282746;22;19995;-85
2022/07/27 11:11:33;;;;;;;7.72;1.77;;;21.70;99.90;;;;;;6263586;22;20423;-93
2022/07/27 11:14:04;;;;;;;5.45;1.30;;;22.10;99.90;;;;;;6283229;22;20070;-87
2022/07/27 11:16:30;;;;;;;3.92;1.40;;;22.20;99.90;;;;;;6283111;22;20004;-90
2022/07/27 11:19:20;;;;;;;5.97;1.60;;;22.40;99.90;;;;;;6174738;23;20017;-90
2022/07/27 11:21:48;;;;;;;6.63;1.48;;;22.80;99.90;;;;;;6190174;23;20016;-93
2022/07/27 11:24:18;;;;;;;2.33;1.13;;;23.00;99.90;;;;;;6198739;23;20017;-90
2022/07/27 11:27:04;;;;;;;8.15;1.42;;;23.00;99.90;;;;;;6208288;23;20016;-85
2022/07/27 11:29:52;;;;;;;3.55;1.30;;;22.60;99.90;;;;;;6151663;23;20013;-86
2022/07/27 11:33:14;;;;;;;4.72;1.40;;;22.50;99.90;;;;;;6150598;23;20005;-85
2022/07/27 11:36:06;;;;;;;1.73;1.20;;;22.40;99.90;;;;;;6293827;22;20078;-84
2022/07/27 11:38:55;;;;;;;3.70;1.38;;;22.20;99.90;;;;;;6190413;23;20056;-87
2022/07/27 11:41:56;;;;;;;4.00;1.67;;;22.40;99.90;;;;;;6180901;23;20453;-86
2022/07/27 11:44:24;;;;;;;6.07;1.13;;;22.40;99.90;;;;;;6168847;23;20024;-90
2022/07/27 11:46:52;;;;;;;9.23;1.20;;;22.50;99.90;;;;;;6145261;23;19994;-93
2022/07/27 11:49:27;;;;;;;6.97;1.30;;;22.40;99.90;;;;;;6238601;23;20481;-91
2022/07/27 11:51:58;;;;;;;3.30;1.20;;;22.40;99.90;;;;;;6258278;23;20004;-92
2022/07/27 11:54:30;;;;;;;5.22;1.33;;;22.40;99.90;;;;;;6232863;23;20000;-93
2022/07/27 11:57:02;;;;;;;5.13;1.30;;;22.40;99.90;;;;;;6246656;23;20046;-91
2022/07/27 11:59:36;;;;;;;5.82;1.30;;;22.50;99.90;;;;;;6248013;23;20204;-85
2022/07/27 12:02:14;;;;;;;2.97;1.33;;;22.70;99.90;;;;;;6252048;23;20008;-91
2022/07/27 12:04:41;;;;;;;;;;;22.70;99.90;;;;;;6257109;23;20038;-90
2022/07/27 12:07:43;;;;;;;5.55;1.40;;;22.80;99.90;;;;;;6255682;23;19931;-86
2022/07/27 12:10:30;;;;;;;4.25;1.60;;;22.80;99.90;;;;;;6167033;23;19989;-87
2022/07/27 12:13:17;;;;;;;5.63;1.30;;;22.90;99.90;;;;;;6187701;23;20035;-88
2022/07/27 12:15:59;;;;;;;1.88;1.20;;;22.90;99.90;;;;;;6229732;23;20232;-89
2022/07/27 12:19:01;;;;;;;2.72;1.25;;;22.70;99.90;;;;;;6251753;23;20043;-90
2022/07/27 12:21:54;;;;;;;2.65;1.20;;;22.90;99.90;;;;;;6232714;23;20005;-88
2022/07/27 12:24:39;;;;;;;4.60;1.20;;;21.60;99.90;;;;;;6235609;23;20012;-88
2022/07/27 12:27:25;;;;;;;2.70;1.27;;;22.90;99.90;;;;;;6186222;23;20008;-87
2022/07/27 12:30:27;;;;;;;3.55;1.38;;;23.10;99.90;;;;;;6179491;23;20524;-87
2022/07/27 12:32:53;;;;;;;4.68;1.25;;;23.40;99.90;;;;;;6199645;23;20024;-87
2022/07/27 12:35:27;;;;;;;5.68;1.50;;;23.50;99.90;;;;;;6202155;23;20020;-89
2022/07/27 12:38:05;;;;;;;2.33;1.17;;;23.60;99.90;;;;;;6200826;23;20005;-92
2022/07/27 12:41:15;;;;;;;4.50;1.30;;;23.60;99.90;;;;;;6216950;22;20009;-86
2022/07/27 12:43:43;;;;;;;5.05;1.40;;;23.70;99.90;;;;;;6299446;22;20007;-86
2022/07/27 12:46:12;;;;;;;;;;;23.50;99.90;;;;;;6294483;22;20011;-88
2022/07/27 12:49:14;;;;;;;3.38;1.33;;;23.40;99.90;;;;;;6231086;23;20343;-88
2022/07/27 12:51:40;;;;;;;1.85;1.20;;;23.50;99.90;;;;;;6206489;23;20001;-86
2022/07/27 12:54:06;;;;;;;4.13;1.40;;;23.50;99.90;;;;;;6227878;23;20000;-93
2022/07/27 12:56:38;;;;;;;2.53;1.10;;;23.50;99.90;;;;;;6209722;23;20009;-86
2022/07/27 12:59:08;;;;;;;3.13;1.30;;;23.50;99.90;;;;;;6261874;23;20000;-88
2022/07/27 13:01:39;;;;;;;1.88;1.13;;;22.80;99.90;;;;;;6260042;23;20067;-87
2022/07/27 13:04:11;;;;;;;4.20;1.20;;;23.00;99.90;;;;;;6264861;23;20009;-87
2022/07/27 13:06:40;;;;;;;4.47;1.38;;;23.20;99.90;;;;;;6259096;23;20019;-87
2022/07/27 13:09:29;;;;;;;4.47;1.33;;;23.50;99.90;;;;;;6224493;23;20004;-89
2022/07/27 13:11:54;;;;;;;2.90;1.20;;;23.80;99.90;;;;;;6221642;23;20005;-91
2022/07/27 13:14:21;;;;;;;7.28;1.35;;;24.10;99.90;;;;;;6224129;23;20001;-90
2022/07/27 13:16:46;;;;;;;3.17;1.20;;;24.40;99.90;;;;;;6199832;23;20016;-88
2022/07/27 13:19:13;;;;;;;3.40;1.20;;;24.60;99.90;;;;;;6210292;22;19984;-93